CPX259 Details

Departure: Miami International Airport (KMIA)
Arrival: Robert L. Stanfield International Airport (CYHZ) at N/A
Route: PADUS2 PADUS PERMT AR16 ILM J174 RIFLE J62 ACK J585 DAVES TUSKY PEGGY3
Notes:


Current Weather Information
KMIA 191553Z 10011KT 10SM SCT035 BKN200 32/22 A3007 RMK AO2 SLP184 T03170222
CYHZ 191512Z 16010KT 130V200 1 1/2SM -DZ BR OVC003 21/21 A3004 RMK ST8 CIG RAG SLP173 DENSITY ALT 1200FT